Time;durP1;ratioP1;P1;durP2;ratioP2;P2;SDS_P1;SDS_P2;PMS_P1;PMS_P2;Temp;Humidity;BMP_temperature;BMP_pressure;BME280_temperature;BME280_humidity;BME280_pressure;Samples;Min_cycle;Max_cycle;Signal;HPM_P1;HPM_P2
2024/01/08 00:02:10;;;;;;;9.32;5.53;;;;;;;;;;5030859;28;20021;-53
2024/01/08 00:04:36;;;;;;;9.15;5.45;;;;;;;;;;5031189;28;20048;-43
2024/01/08 00:07:02;;;;;;;9.35;5.50;;;;;;;;;;5031263;28;20499;-51
2024/01/08 00:09:28;;;;;;;9.40;5.55;;;;;;;;;;5013157;28;20079;-47
2024/01/08 00:11:54;;;;;;;9.30;5.50;;;;;;;;;;5030498;28;20103;-49
2024/01/08 00:14:20;;;;;;;9.15;5.40;;;;;;;;;;5013207;28;20028;-49
2024/01/08 00:16:46;;;;;;;9.30;5.50;;;;;;;;;;5031158;28;20071;-47
2024/01/08 00:19:12;;;;;;;9.40;5.55;;;;;;;;;;5030520;28;20021;-51
2024/01/08 00:21:38;;;;;;;9.27;5.45;;;;;;;;;;5030473;28;20025;-49
2024/01/08 00:24:04;;;;;;;8.70;5.18;;;;;;;;;;5030746;28;20361;-47
2024/01/08 00:26:31;;;;;;;8.90;5.30;;;;;;;;;;5030911;28;20021;-47
2024/01/08 00:28:58;;;;;;;8.75;5.20;;;;;;;;;;5030733;28;20494;-45
2024/01/08 00:31:24;;;;;;;8.60;5.07;;;;;;;;;;5030493;28;20427;-45
2024/01/08 00:33:50;;;;;;;8.75;5.30;;;;;;;;;;5013473;28;20022;-48
2024/01/08 00:36:16;;;;;;;8.90;5.30;;;;;;;;;;5030965;28;20025;-47
2024/01/08 00:38:42;;;;;;;8.63;5.13;;;;;;;;;;5015600;28;20483;-47
2024/01/08 00:41:08;;;;;;;8.80;5.20;;;;;;;;;;5034950;22;20618;-43
2024/01/08 00:43:34;;;;;;;8.43;5.00;;;;;;;;;;5008136;28;20025;-43
2024/01/08 00:46:00;;;;;;;8.77;5.20;;;;;;;;;;5019065;28;20021;-46
2024/01/08 00:48:26;;;;;;;9.25;5.50;;;;;;;;;;5029773;28;20026;-44
2024/01/08 00:50:53;;;;;;;8.82;5.22;;;;;;;;;;5029367;28;20080;-46
2024/01/08 00:53:19;;;;;;;9.43;5.60;;;;;;;;;;5029732;28;20156;-44
2024/01/08 00:55:45;;;;;;;9.07;5.40;;;;;;;;;;5028619;28;20021;-43
2024/01/08 00:58:11;;;;;;;9.60;6.97;;;;;;;;;;5027847;28;20642;-44
2024/01/08 01:00:37;;;;;;;9.10;5.40;;;;;;;;;;5010735;28;20061;-43
2024/01/08 01:03:03;;;;;;;8.75;5.20;;;;;;;;;;5009378;28;20018;-46
2024/01/08 01:05:29;;;;;;;9.45;5.50;;;;;;;;;;5020198;28;20412;-44
2024/01/08 01:07:55;;;;;;;9.13;5.40;;;;;;;;;;5030114;28;20021;-46
2024/01/08 01:10:21;;;;;;;9.20;5.43;;;;;;;;;;5030027;28;20025;-45
2024/01/08 01:12:47;;;;;;;9.07;5.40;;;;;;;;;;5030102;28;20159;-49
2024/01/08 01:15:13;;;;;;;9.00;5.32;;;;;;;;;;5030440;28;20028;-46
2024/01/08 01:17:39;;;;;;;9.23;5.50;;;;;;;;;;5030149;28;20024;-46
2024/01/08 01:20:05;;;;;;;9.18;5.40;;;;;;;;;;5029857;28;20025;-45
2024/01/08 01:22:31;;;;;;;9.48;5.60;;;;;;;;;;5028445;28;20399;-43
2024/01/08 01:24:57;;;;;;;9.20;5.40;;;;;;;;;;5030031;28;20025;-44
2024/01/08 01:27:23;;;;;;;9.15;5.40;;;;;;;;;;5029853;28;20041;-44
2024/01/08 01:29:49;;;;;;;9.40;5.55;;;;;;;;;;5029290;28;20049;-43
2024/01/08 01:32:15;;;;;;;9.35;5.55;;;;;;;;;;5029488;28;20041;-43
2024/01/08 01:34:41;;;;;;;8.80;5.20;;;;;;;;;;5029958;28;20083;-43
2024/01/08 01:37:07;;;;;;;8.90;5.25;;;;;;;;;;5029886;28;20665;-44
2024/01/08 01:39:33;;;;;;;8.70;5.15;;;;;;;;;;5028807;28;20060;-46
2024/01/08 01:41:59;;;;;;;9.07;5.38;;;;;;;;;;5015779;28;20164;-43
2024/01/08 01:44:25;;;;;;;8.80;5.20;;;;;;;;;;5010078;28;20061;-43
2024/01/08 01:46:52;;;;;;;8.68;5.18;;;;;;;;;;5010298;28;20018;-43
2024/01/08 01:49:20;;;;;;;8.70;5.20;;;;;;;;;;5010494;28;20026;-44
2024/01/08 01:51:47;;;;;;;8.40;5.00;;;;;;;;;;5008609;28;20046;-43
2024/01/08 01:54:16;;;;;;;8.70;5.20;;;;;;;;;;5010162;28;20022;-43
2024/01/08 01:56:44;;;;;;;8.52;5.10;;;;;;;;;;5010437;28;20029;-43
2024/01/08 01:59:11;;;;;;;8.50;5.10;;;;;;;;;;5010199;28;20018;-45
2024/01/08 02:01:37;;;;;;;8.80;5.20;;;;;;;;;;5009786;28;21577;-43
2024/01/08 02:04:04;;;;;;;8.60;5.10;;;;;;;;;;5008894;28;20025;-44
2024/01/08 02:06:30;;;;;;;8.48;5.00;;;;;;;;;;5009984;28;20100;-43
2024/01/08 02:08:56;;;;;;;8.60;5.10;;;;;;;;;;5009790;28;20128;-43
2024/01/08 02:11:23;;;;;;;8.65;5.13;;;;;;;;;;5009489;28;20026;-47
2024/01/08 02:13:49;;;;;;;8.65;5.10;;;;;;;;;;5009877;28;20033;-45
2024/01/08 02:16:17;;;;;;;8.70;5.18;;;;;;;;;;5024616;28;20152;-43
2024/01/08 02:18:43;;;;;;;8.85;5.20;;;;;;;;;;5029856;28;20014;-44
2024/01/08 02:21:09;;;;;;;8.77;5.20;;;;;;;;;;5029233;28;20718;-49
2024/01/08 02:23:35;;;;;;;8.80;5.20;;;;;;;;;;5029282;28;20017;-45
2024/01/08 02:26:01;;;;;;;8.77;5.20;;;;;;;;;;5027982;28;20068;-46
2024/01/08 02:28:27;;;;;;;9.27;5.47;;;;;;;;;;5029439;28;20021;-47
2024/01/08 02:30:53;;;;;;;8.82;5.20;;;;;;;;;;5015160;28;20056;-43
2024/01/08 02:33:19;;;;;;;9.00;5.80;;;;;;;;;;5010573;28;20026;-46
2024/01/08 02:35:45;;;;;;;9.00;5.30;;;;;;;;;;5011479;28;20129;-45
2024/01/08 02:38:11;;;;;;;9.43;5.55;;;;;;;;;;5010296;28;20105;-44
2024/01/08 02:40:37;;;;;;;9.30;5.50;;;;;;;;;;5009326;28;20041;-44
2024/01/08 02:43:03;;;;;;;9.00;5.32;;;;;;;;;;5012843;28;20033;-47
2024/01/08 02:45:31;;;;;;;9.60;5.50;;;;;;;;;;5013527;28;20018;-45
2024/01/08 02:47:57;;;;;;;9.40;5.50;;;;;;;;;;5013462;28;20036;-46
2024/01/08 02:50:23;;;;;;;8.98;5.30;;;;;;;;;;5013151;28;20030;-43
2024/01/08 02:52:49;;;;;;;10.15;5.90;;;;;;;;;;5013066;28;20605;-44
2024/01/08 02:55:15;;;;;;;9.10;5.40;;;;;;;;;;5013017;28;20026;-43
2024/01/08 02:57:41;;;;;;;9.10;5.38;;;;;;;;;;5013141;28;20520;-43
2024/01/08 03:00:08;;;;;;;9.07;5.38;;;;;;;;;;5013103;28;20038;-43
2024/01/08 03:02:34;;;;;;;9.30;5.50;;;;;;;;;;5012901;28;20029;-45
2024/01/08 03:05:00;;;;;;;8.98;5.30;;;;;;;;;;5013579;28;20050;-45
2024/01/08 03:07:26;;;;;;;9.00;5.30;;;;;;;;;;5012997;28;20057;-42
2024/01/08 03:09:58;;;;;;;9.40;5.60;;;;;;;;;;5013075;28;20031;-43
2024/01/08 03:12:24;;;;;;;9.10;5.38;;;;;;;;;;5029719;28;20391;-43
2024/01/08 03:14:50;;;;;;;8.65;5.15;;;;;;;;;;5030975;28;20157;-43
2024/01/08 03:17:16;;;;;;;8.98;5.30;;;;;;;;;;5032286;28;20527;-43
2024/01/08 03:19:42;;;;;;;9.23;5.43;;;;;;;;;;5031334;28;20108;-43
2024/01/08 03:22:08;;;;;;;9.27;5.50;;;;;;;;;;5032793;28;20045;-43
2024/01/08 03:24:36;;;;;;;9.48;5.60;;;;;;;;;;5032435;28;20037;-46
2024/01/08 03:27:02;;;;;;;9.10;5.40;;;;;;;;;;5032272;28;20021;-48
2024/01/08 03:29:28;;;;;;;8.98;5.30;;;;;;;;;;5031992;28;20026;-44
2024/01/08 03:31:54;;;;;;;9.10;5.38;;;;;;;;;;5025464;28;20029;-44
2024/01/08 03:34:20;;;;;;;9.60;5.70;;;;;;;;;;5012151;28;20099;-49
2024/01/08 03:36:49;;;;;;;9.38;5.47;;;;;;;;;;5012205;28;20025;-45
2024/01/08 03:39:16;;;;;;;9.02;5.32;;;;;;;;;;5028411;28;20022;-47
2024/01/08 03:41:42;;;;;;;9.25;5.45;;;;;;;;;;5031469;28;20033;-43
2024/01/08 03:44:13;;;;;;;10.30;6.10;;;;;;;;;;5031999;28;20030;-43
2024/01/08 03:46:39;;;;;;;9.23;5.47;;;;;;;;;;5031878;28;20032;-47
2024/01/08 03:49:06;;;;;;;9.80;5.85;;;;;;;;;;5031713;28;20046;-44
2024/01/08 03:51:32;;;;;;;9.70;5.70;;;;;;;;;;5031308;28;20070;-43
2024/01/08 03:53:58;;;;;;;10.48;6.35;;;;;;;;;;5031007;28;20092;-43
2024/01/08 03:56:24;;;;;;;9.43;5.57;;;;;;;;;;5031352;28;20029;-46
2024/01/08 03:58:50;;;;;;;10.88;7.70;;;;;;;;;;5030240;28;20540;-44
2024/01/08 04:01:16;;;;;;;8.93;5.28;;;;;;;;;;5031067;28;20100;-47
2024/01/08 04:03:42;;;;;;;11.90;8.05;;;;;;;;;;5031376;28;20021;-44
2024/01/08 04:06:08;;;;;;;10.35;6.00;;;;;;;;;;5030287;28;20529;-46
2024/01/08 04:08:34;;;;;;;9.73;5.72;;;;;;;;;;5020753;28;20042;-45
2024/01/08 04:11:00;;;;;;;9.32;5.50;;;;;;;;;;5011134;28;20025;-50
2024/01/08 04:13:26;;;;;;;9.73;5.68;;;;;;;;;;5010597;28;20096;-49
2024/01/08 04:15:52;;;;;;;9.68;5.78;;;;;;;;;;5011437;28;20017;-47
2024/01/08 04:18:18;;;;;;;13.25;6.85;;;;;;;;;;5011231;28;20022;-48
2024/01/08 04:20:44;;;;;;;9.18;5.47;;;;;;;;;;5011839;28;20491;-51
2024/01/08 04:23:10;;;;;;;9.10;5.40;;;;;;;;;;5011760;28;20722;-48
2024/01/08 04:25:36;;;;;;;9.60;5.68;;;;;;;;;;5011683;28;20109;-47
2024/01/08 04:28:03;;;;;;;9.20;5.43;;;;;;;;;;5011762;28;20025;-48
2024/01/08 04:30:28;;;;;;;9.50;5.63;;;;;;;;;;5011803;28;20033;-47
2024/01/08 04:32:55;;;;;;;9.55;5.68;;;;;;;;;;5029673;28;20083;-44
2024/01/08 04:35:21;;;;;;;9.45;5.57;;;;;;;;;;5031171;28;20096;-48
2024/01/08 04:37:47;;;;;;;9.20;5.45;;;;;;;;;;5030862;28;20093;-42
2024/01/08 04:40:15;;;;;;;9.40;5.60;;;;;;;;;;5014688;28;20029;-50
2024/01/08 04:42:40;;;;;;;9.30;5.50;;;;;;;;;;5010535;28;20159;-48
2024/01/08 04:45:07;;;;;;;9.23;5.50;;;;;;;;;;5010755;28;20149;-45
2024/01/08 04:47:33;;;;;;;11.25;6.18;;;;;;;;;;5010344;28;20033;-49
2024/01/08 04:49:59;;;;;;;9.20;5.40;;;;;;;;;;5010834;28;20018;-48
2024/01/08 04:52:25;;;;;;;9.82;5.78;;;;;;;;;;5010619;28;20061;-48
2024/01/08 04:54:51;;;;;;;9.82;5.80;;;;;;;;;;5010629;28;20018;-47
2024/01/08 04:57:18;;;;;;;10.40;6.10;;;;;;;;;;5009444;28;20022;-47
2024/01/08 04:59:44;;;;;;;10.65;6.50;;;;;;;;;;5010711;28;20018;-51
2024/01/08 05:02:10;;;;;;;10.40;6.10;;;;;;;;;;5010290;28;20118;-47
2024/01/08 05:04:36;;;;;;;10.15;6.00;;;;;;;;;;5008295;28;20034;-47
2024/01/08 05:07:02;;;;;;;10.55;6.20;;;;;;;;;;5010766;28;20021;-50
2024/01/08 05:09:29;;;;;;;10.10;5.95;;;;;;;;;;5010229;28;20380;-47
2024/01/08 05:11:55;;;;;;;10.30;6.00;;;;;;;;;;5009726;28;20026;-46
2024/01/08 05:14:21;;;;;;;10.13;5.95;;;;;;;;;;5010395;28;20041;-46
2024/01/08 05:16:47;;;;;;;10.10;5.95;;;;;;;;;;5008970;28;20053;-45
2024/01/08 05:19:13;;;;;;;10.02;5.90;;;;;;;;;;5010238;28;20452;-49
2024/01/08 05:21:39;;;;;;;10.55;6.18;;;;;;;;;;5009838;28;20033;-46
2024/01/08 05:24:06;;;;;;;10.07;5.95;;;;;;;;;;5010469;28;20041;-47
2024/01/08 05:26:32;;;;;;;9.93;5.80;;;;;;;;;;5010153;28;20041;-45
2024/01/08 05:28:58;;;;;;;9.85;5.80;;;;;;;;;;5010101;28;20591;-46
2024/01/08 05:31:24;;;;;;;10.40;6.72;;;;;;;;;;5009262;28;20056;-45
2024/01/08 05:33:50;;;;;;;9.85;5.78;;;;;;;;;;5008732;28;20018;-44
2024/01/08 05:36:16;;;;;;;9.80;5.70;;;;;;;;;;5009878;28;20080;-46
2024/01/08 05:38:42;;;;;;;9.98;5.88;;;;;;;;;;5009460;28;20025;-47
2024/01/08 05:41:08;;;;;;;10.10;5.93;;;;;;;;;;5007887;28;20033;-45
2024/01/08 05:43:37;;;;;;;10.32;6.05;;;;;;;;;;5009366;28;20036;-43
2024/01/08 05:46:05;;;;;;;10.23;6.03;;;;;;;;;;5009351;28;20016;-42
2024/01/08 05:48:37;;;;;;;9.90;5.80;;;;;;;;;;5009181;28;20024;-49
2024/01/08 05:51:03;;;;;;;10.30;6.10;;;;;;;;;;5008509;28;20415;-47
2024/01/08 05:53:31;;;;;;;10.27;6.00;;;;;;;;;;5008517;28;20105;-47
2024/01/08 05:55:57;;;;;;;10.18;5.97;;;;;;;;;;5010111;28;20044;-48
2024/01/08 05:58:23;;;;;;;10.95;6.57;;;;;;;;;;5009734;28;20539;-48
2024/01/08 06:00:49;;;;;;;10.80;6.30;;;;;;;;;;5009434;28;20045;-46
2024/01/08 06:03:15;;;;;;;10.23;6.00;;;;;;;;;;5009963;28;20029;-46
2024/01/08 06:05:41;;;;;;;9.93;5.88;;;;;;;;;;5009780;28;20026;-45
2024/01/08 06:08:08;;;;;;;11.02;6.20;;;;;;;;;;5009578;28;20139;-45
2024/01/08 06:10:34;;;;;;;10.00;5.88;;;;;;;;;;5009111;28;20118;-52
2024/01/08 06:13:00;;;;;;;11.02;6.95;;;;;;;;;;5009146;28;20030;-44
2024/01/08 06:15:26;;;;;;;11.60;6.70;;;;;;;;;;5009489;28;20018;-50
2024/01/08 06:17:53;;;;;;;10.43;6.10;;;;;;;;;;5012797;28;20018;-45
2024/01/08 06:20:19;;;;;;;10.27;6.03;;;;;;;;;;5013091;28;20029;-49
2024/01/08 06:22:45;;;;;;;10.20;6.03;;;;;;;;;;5012957;28;20495;-49
2024/01/08 06:25:11;;;;;;;11.02;6.63;;;;;;;;;;5011646;28;20069;-45
2024/01/08 06:27:37;;;;;;;10.18;5.95;;;;;;;;;;5012875;28;20081;-49
2024/01/08 06:30:03;;;;;;;11.30;7.88;;;;;;;;;;5012801;28;20071;-47
2024/01/08 06:32:29;;;;;;;10.13;5.93;;;;;;;;;;5012443;28;20045;-49
2024/01/08 06:34:56;;;;;;;10.32;6.10;;;;;;;;;;5012829;28;20530;-47
2024/01/08 06:37:22;;;;;;;10.50;6.20;;;;;;;;;;5013149;28;20229;-47
2024/01/08 06:39:48;;;;;;;10.68;6.28;;;;;;;;;;5016980;28;20026;-41
2024/01/08 06:42:14;;;;;;;10.57;6.20;;;;;;;;;;5061042;22;20067;-57
2024/01/08 06:44:40;;;;;;;10.45;6.10;;;;;;;;;;5051028;28;20023;-58
2024/01/08 06:47:06;;;;;;;9.95;5.85;;;;;;;;;;5056196;28;20115;-59
2024/01/08 06:49:32;;;;;;;10.43;6.07;;;;;;;;;;5060710;28;20068;-57
2024/01/08 06:52:00;;;;;;;10.43;6.10;;;;;;;;;;5050354;28;20028;-59
2024/01/08 06:54:26;;;;;;;11.02;6.40;;;;;;;;;;5050910;28;20673;-55
2024/01/08 06:56:52;;;;;;;10.50;6.10;;;;;;;;;;5051162;28;20096;-57
2024/01/08 06:59:18;;;;;;;9.85;5.80;;;;;;;;;;5051049;28;20515;-53
2024/01/08 07:01:44;;;;;;;10.25;6.03;;;;;;;;;;5049531;28;20040;-58
2024/01/08 07:04:10;;;;;;;10.20;6.00;;;;;;;;;;5049712;28;20402;-58
2024/01/08 07:06:37;;;;;;;10.52;6.15;;;;;;;;;;5051395;28;20483;-59
2024/01/08 07:09:03;;;;;;;10.40;6.10;;;;;;;;;;5049999;28;20523;-58
2024/01/08 07:11:29;;;;;;;10.40;6.68;;;;;;;;;;5050392;28;20117;-57
2024/01/08 07:13:55;;;;;;;9.82;5.93;;;;;;;;;;5050908;28;20104;-56
2024/01/08 07:16:21;;;;;;;9.80;5.80;;;;;;;;;;5050873;28;20037;-54
2024/01/08 07:18:47;;;;;;;9.98;5.88;;;;;;;;;;5050576;28;20027;-56
2024/01/08 07:21:16;;;;;;;9.60;5.70;;;;;;;;;;5050104;28;20086;-53
2024/01/08 07:23:43;;;;;;;9.70;5.70;;;;;;;;;;5050506;28;20017;-52
2024/01/08 07:26:09;;;;;;;9.75;5.70;;;;;;;;;;5050292;28;20021;-54
2024/01/08 07:28:35;;;;;;;9.70;5.70;;;;;;;;;;5048903;28;20111;-53
2024/01/08 07:31:03;;;;;;;10.07;5.90;;;;;;;;;;5049904;28;20082;-57
2024/01/08 07:33:29;;;;;;;12.85;7.43;;;;;;;;;;5049979;28;20029;-57
2024/01/08 07:35:55;;;;;;;11.05;7.75;;;;;;;;;;5050072;28;20378;-56
2024/01/08 07:38:21;;;;;;;10.77;6.68;;;;;;;;;;5048473;28;20143;-54
2024/01/08 07:40:47;;;;;;;10.73;6.32;;;;;;;;;;5039947;28;20506;-53
2024/01/08 07:43:14;;;;;;;9.70;5.70;;;;;;;;;;5043765;28;20039;-58
2024/01/08 07:45:40;;;;;;;10.80;6.28;;;;;;;;;;5029849;28;20032;-56
2024/01/08 07:48:06;;;;;;;10.85;6.35;;;;;;;;;;5040948;28;20429;-57
2024/01/08 07:50:32;;;;;;;10.55;6.35;;;;;;;;;;5049320;28;20033;-58
2024/01/08 07:52:58;;;;;;;11.00;6.47;;;;;;;;;;5049421;28;20094;-56
2024/01/08 07:55:24;;;;;;;10.30;6.00;;;;;;;;;;5048753;28;20111;-59
2024/01/08 07:57:50;;;;;;;13.80;7.63;;;;;;;;;;5029833;28;20017;-56
2024/01/08 08:00:16;;;;;;;10.35;6.10;;;;;;;;;;5029719;28;20071;-57
2024/01/08 08:02:42;;;;;;;10.45;5.95;;;;;;;;;;5029504;28;20086;-58
2024/01/08 08:05:08;;;;;;;11.40;6.60;;;;;;;;;;5029727;28;20064;-59
2024/01/08 08:07:35;;;;;;;10.05;5.93;;;;;;;;;;5044897;28;20057;-57
2024/01/08 08:10:01;;;;;;;10.50;6.20;;;;;;;;;;5029598;28;20454;-58
2024/01/08 08:12:28;;;;;;;10.32;6.07;;;;;;;;;;5030009;28;20021;-60
2024/01/08 08:14:58;;;;;;;10.40;6.07;;;;;;;;;;5049437;28;20079;-59
2024/01/08 08:17:24;;;;;;;12.98;7.47;;;;;;;;;;5047878;28;20021;-57
2024/01/08 08:19:50;;;;;;;14.20;6.90;;;;;;;;;;5049253;28;20512;-59
2024/01/08 08:22:16;;;;;;;10.63;6.45;;;;;;;;;;5049277;28;20043;-57
2024/01/08 08:24:42;;;;;;;10.15;5.97;;;;;;;;;;5049498;28;20603;-57
2024/01/08 08:27:12;;;;;;;10.90;6.20;;;;;;;;;;5049410;28;20032;-56
2024/01/08 08:29:38;;;;;;;10.85;6.38;;;;;;;;;;5049517;28;20033;-58
2024/01/08 08:32:04;;;;;;;10.38;6.15;;;;;;;;;;5047980;28;20074;-58
2024/01/08 08:34:30;;;;;;;14.23;8.05;;;;;;;;;;5049123;28;20077;-58
2024/01/08 08:36:56;;;;;;;12.88;7.25;;;;;;;;;;5048923;28;20461;-57
2024/01/08 08:39:23;;;;;;;11.45;6.60;;;;;;;;;;5048477;28;20029;-57
2024/01/08 08:41:49;;;;;;;10.63;6.22;;;;;;;;;;5047320;28;20051;-52
2024/01/08 08:44:15;;;;;;;10.95;6.40;;;;;;;;;;5048879;28;20028;-53
2024/01/08 08:46:41;;;;;;;11.20;6.50;;;;;;;;;;5048696;28;20505;-52
2024/01/08 08:49:07;;;;;;;10.38;6.10;;;;;;;;;;5048799;28;20068;-54
2024/01/08 08:51:34;;;;;;;10.65;6.22;;;;;;;;;;5048514;28;20510;-51
2024/01/08 08:54:03;;;;;;;11.63;7.03;;;;;;;;;;5048585;28;20024;-49
2024/01/08 08:56:30;;;;;;;10.70;6.30;;;;;;;;;;5048460;28;20104;-52
2024/01/08 08:58:56;;;;;;;11.30;6.60;;;;;;;;;;5048964;28;20024;-48
2024/01/08 09:01:23;;;;;;;11.50;7.00;;;;;;;;;;5048899;28;20020;-48
2024/01/08 09:03:49;;;;;;;11.90;6.80;;;;;;;;;;5048983;28;20013;-49
2024/01/08 09:06:15;;;;;;;12.20;7.25;;;;;;;;;;5048682;28;20020;-50
2024/01/08 09:08:41;;;;;;;11.70;6.85;;;;;;;;;;5049009;28;20650;-48
2024/01/08 09:11:08;;;;;;;12.25;7.13;;;;;;;;;;5048809;28;20033;-48
2024/01/08 09:13:34;;;;;;;11.95;7.05;;;;;;;;;;5047162;28;20067;-53
2024/01/08 09:16:00;;;;;;;13.10;7.78;;;;;;;;;;5048729;28;20021;-50
2024/01/08 09:18:26;;;;;;;14.75;7.32;;;;;;;;;;5031331;28;20494;-51
2024/01/08 09:20:54;;;;;;;14.10;7.57;;;;;;;;;;5028685;28;20411;-52
2024/01/08 09:23:20;;;;;;;11.63;6.80;;;;;;;;;;5028602;28;20021;-55
2024/01/08 09:25:46;;;;;;;12.77;7.47;;;;;;;;;;5028807;28;20021;-51
2024/01/08 09:28:12;;;;;;;12.40;7.30;;;;;;;;;;5036295;28;20116;-55
2024/01/08 09:30:38;;;;;;;12.90;7.43;;;;;;;;;;5046853;28;20132;-49
2024/01/08 09:33:04;;;;;;;14.82;8.07;;;;;;;;;;5048011;28;20113;-53
2024/01/08 09:35:30;;;;;;;12.88;7.55;;;;;;;;;;5048531;28;20029;-49
2024/01/08 09:37:56;;;;;;;13.20;7.90;;;;;;;;;;5047121;28;20154;-51
2024/01/08 09:40:22;;;;;;;12.25;7.13;;;;;;;;;;5048516;28;20154;-50
2024/01/08 09:42:49;;;;;;;12.00;7.00;;;;;;;;;;5047157;28;20036;-51
2024/01/08 09:45:18;;;;;;;13.30;7.70;;;;;;;;;;5046856;28;20048;-54
2024/01/08 09:47:44;;;;;;;13.70;8.30;;;;;;;;;;5048903;28;20020;-51
2024/01/08 09:50:13;;;;;;;13.05;7.65;;;;;;;;;;5048759;28;20090;-52
2024/01/08 09:52:39;;;;;;;;;;;;;;;;;;5041344;28;20037;-54
2024/01/08 09:55:08;;;;;;;12.57;7.70;;;;;;;;;;5033143;28;19908;-49
2024/01/08 09:57:34;;;;;;;;;;;;;;;;;;5033522;28;20096;-50
2024/01/08 10:00:00;;;;;;;12.02;7.10;;;;;;;;;;5033181;28;20440;-51
2024/01/08 10:02:26;;;;;;;11.55;6.80;;;;;;;;;;5032476;28;20025;-52
2024/01/08 10:04:52;;;;;;;11.45;6.70;;;;;;;;;;5032331;28;20121;-53
2024/01/08 10:07:18;;;;;;;11.23;6.60;;;;;;;;;;5032737;28;20032;-52
2024/01/08 10:09:44;;;;;;;12.57;7.32;;;;;;;;;;5032730;28;20044;-52
2024/01/08 10:12:10;;;;;;;11.80;7.10;;;;;;;;;;5031817;28;20030;-51
2024/01/08 10:14:36;;;;;;;11.88;6.90;;;;;;;;;;5032712;28;20028;-52
2024/01/08 10:17:02;;;;;;;12.63;7.25;;;;;;;;;;5047863;28;20056;-54
2024/01/08 10:19:28;;;;;;;12.05;7.00;;;;;;;;;;5032235;28;20033;-51
2024/01/08 10:22:08;;;;;;;11.60;6.78;;;;;;;;;;5032118;28;20021;-55
2024/01/08 10:24:34;;;;;;;11.93;7.00;;;;;;;;;;5032482;28;20030;-51
2024/01/08 10:27:00;;;;;;;12.43;7.40;;;;;;;;;;5032216;28;20025;-55
2024/01/08 10:29:26;;;;;;;12.63;7.85;;;;;;;;;;5032035;28;20025;-55
2024/01/08 10:31:52;;;;;;;14.65;11.82;;;;;;;;;;5044313;28;20017;-54
2024/01/08 10:34:19;;;;;;;11.57;6.70;;;;;;;;;;5052064;28;20029;-53
2024/01/08 10:36:45;;;;;;;12.90;7.30;;;;;;;;;;5051616;28;20029;-57
2024/01/08 10:39:12;;;;;;;12.55;7.43;;;;;;;;;;5042911;28;20029;-49
2024/01/08 10:41:38;;;;;;;12.15;6.97;;;;;;;;;;5051313;28;20037;-52
2024/01/08 10:44:04;;;;;;;12.27;7.13;;;;;;;;;;5052206;28;20017;-55
2024/01/08 10:46:34;;;;;;;12.70;7.30;;;;;;;;;;5051516;28;20028;-53
2024/01/08 10:49:01;;;;;;;14.20;7.88;;;;;;;;;;5052167;28;20041;-54
2024/01/08 10:51:28;;;;;;;12.02;7.00;;;;;;;;;;5051228;28;20021;-52
2024/01/08 10:53:54;;;;;;;13.45;7.40;;;;;;;;;;5049953;28;20032;-51
2024/01/08 10:56:23;;;;;;;13.02;7.65;;;;;;;;;;5051031;28;20171;-55
2024/01/08 10:58:56;;;;;;;12.93;7.50;;;;;;;;;;5039316;28;20379;-54
2024/01/08 11:01:22;;;;;;;13.30;7.80;;;;;;;;;;5047691;28;20023;-51
2024/01/08 11:03:48;;;;;;;13.52;8.18;;;;;;;;;;5051222;28;20070;-52
2024/01/08 11:06:14;;;;;;;13.10;7.95;;;;;;;;;;5051184;28;20021;-54
2024/01/08 11:08:42;;;;;;;13.35;8.15;;;;;;;;;;5051116;28;20501;-54
2024/01/08 11:11:09;;;;;;;13.37;8.20;;;;;;;;;;5051112;28;20543;-52
2024/01/08 11:13:36;;;;;;;13.43;8.20;;;;;;;;;;5050859;28;20674;-50
2024/01/08 11:16:06;;;;;;;13.27;8.10;;;;;;;;;;5050621;28;20025;-50
2024/01/08 11:18:32;;;;;;;13.60;8.25;;;;;;;;;;5050688;28;20082;-54
2024/01/08 11:20:59;;;;;;;14.88;9.95;;;;;;;;;;5050447;28;20066;-52
2024/01/08 11:23:32;;;;;;;13.25;8.00;;;;;;;;;;5050470;28;20076;-50
2024/01/08 11:25:59;;;;;;;14.15;8.50;;;;;;;;;;5049130;28;20055;-50
2024/01/08 11:28:25;;;;;;;13.25;8.07;;;;;;;;;;5048894;28;20025;-50
2024/01/08 11:31:02;;;;;;;13.50;8.23;;;;;;;;;;5049542;28;20502;-50
2024/01/08 11:33:28;;;;;;;13.50;8.43;;;;;;;;;;5049690;28;20100;-54
2024/01/08 11:36:02;;;;;;;13.70;8.50;;;;;;;;;;5049947;28;20616;-50
2024/01/08 11:38:28;;;;;;;14.55;8.50;;;;;;;;;;5049900;28;20035;-52
2024/01/08 11:40:55;;;;;;;13.52;8.40;;;;;;;;;;5049502;28;20037;-54
2024/01/08 11:43:21;;;;;;;14.00;8.57;;;;;;;;;;5050289;28;20032;-52
2024/01/08 11:45:47;;;;;;;14.45;8.50;;;;;;;;;;5049837;28;20103;-53
2024/01/08 11:48:13;;;;;;;13.50;8.52;;;;;;;;;;5049365;28;20117;-51
2024/01/08 11:50:42;;;;;;;14.05;9.20;;;;;;;;;;5049214;28;20043;-48
2024/01/08 11:53:12;;;;;;;14.25;9.48;;;;;;;;;;5049582;28;20021;-51
2024/01/08 11:55:44;;;;;;;13.60;8.80;;;;;;;;;;5049696;28;20104;-51
2024/01/08 11:58:10;;;;;;;13.60;8.77;;;;;;;;;;5048480;28;20078;-49
2024/01/08 12:00:36;;;;;;;14.20;9.23;;;;;;;;;;5031100;28;20029;-47
2024/01/08 12:03:02;;;;;;;14.15;9.15;;;;;;;;;;5030012;28;20055;-53
2024/01/08 12:05:28;;;;;;;13.38;8.25;;;;;;;;;;5039888;28;20487;-53
2024/01/08 12:07:55;;;;;;;13.50;8.50;;;;;;;;;;5046847;28;20107;-52
2024/01/08 12:10:21;;;;;;;13.73;9.13;;;;;;;;;;5039662;28;20251;-52
2024/01/08 12:12:47;;;;;;;19.27;9.20;;;;;;;;;;5030283;28;20059;-49
2024/01/08 12:15:13;;;;;;;13.77;8.73;;;;;;;;;;5029746;28;20456;-51
2024/01/08 12:17:39;;;;;;;13.45;8.55;;;;;;;;;;5029877;28;20025;-49
2024/01/08 12:20:06;;;;;;;13.70;8.82;;;;;;;;;;5030247;28;20045;-51
2024/01/08 12:22:33;;;;;;;14.75;9.73;;;;;;;;;;5029468;28;20108;-52
2024/01/08 12:24:59;;;;;;;13.60;8.70;;;;;;;;;;5042865;28;20139;-52
2024/01/08 12:27:27;;;;;;;13.55;8.57;;;;;;;;;;5048824;28;20036;-52
2024/01/08 12:29:54;;;;;;;13.65;9.13;;;;;;;;;;5049109;28;20119;-53
2024/01/08 12:32:21;;;;;;;13.57;8.70;;;;;;;;;;5048410;28;20040;-53
2024/01/08 12:34:47;;;;;;;13.65;8.85;;;;;;;;;;5048802;28;20607;-52
2024/01/08 12:37:14;;;;;;;13.68;8.90;;;;;;;;;;5048608;28;20032;-49
2024/01/08 12:39:40;;;;;;;13.80;9.00;;;;;;;;;;5048539;28;20395;-53
2024/01/08 12:42:20;;;;;;;13.80;9.10;;;;;;;;;;5049039;28;20033;-54
2024/01/08 12:44:49;;;;;;;13.80;9.18;;;;;;;;;;5044082;28;20096;-53
2024/01/08 12:47:16;;;;;;;15.38;9.63;;;;;;;;;;5028372;28;20118;-49
2024/01/08 12:49:42;;;;;;;14.40;8.98;;;;;;;;;;5028641;28;20096;-51
2024/01/08 12:52:08;;;;;;;14.82;9.10;;;;;;;;;;5027936;28;20529;-52
2024/01/08 12:54:37;;;;;;;14.38;9.15;;;;;;;;;;5028196;28;20017;-50
2024/01/08 12:57:04;;;;;;;15.73;9.38;;;;;;;;;;5028610;28;20388;-52
2024/01/08 12:59:32;;;;;;;13.63;8.63;;;;;;;;;;5028512;28;20025;-53
2024/01/08 13:01:58;;;;;;;13.65;8.73;;;;;;;;;;5028239;28;20496;-50
2024/01/08 13:04:24;;;;;;;13.70;8.93;;;;;;;;;;5028354;28;20103;-56
2024/01/08 13:06:50;;;;;;;13.63;8.88;;;;;;;;;;5028616;28;20288;-63
2024/01/08 13:09:17;;;;;;;13.70;8.98;;;;;;;;;;5028429;28;20024;-56
2024/01/08 13:11:44;;;;;;;13.70;9.02;;;;;;;;;;5028153;28;20108;-56
2024/01/08 13:14:17;;;;;;;14.82;9.90;;;;;;;;;;5028466;28;20079;-58
2024/01/08 13:16:44;;;;;;;13.65;8.88;;;;;;;;;;5028540;28;20014;-51
2024/01/08 13:19:10;;;;;;;15.02;9.45;;;;;;;;;;5028523;28;20093;-50
2024/01/08 13:21:40;;;;;;;14.10;9.30;;;;;;;;;;5028069;28;20383;-54
2024/01/08 13:24:06;;;;;;;14.68;10.05;;;;;;;;;;5028271;28;20030;-52
2024/01/08 13:26:32;;;;;;;13.80;9.13;;;;;;;;;;5045396;28;20036;-51
2024/01/08 13:28:58;;;;;;;13.65;9.00;;;;;;;;;;5048132;28;20024;-56
2024/01/08 13:31:24;;;;;;;14.40;9.50;;;;;;;;;;5046271;28;20048;-52
2024/01/08 13:33:50;;;;;;;14.90;9.70;;;;;;;;;;5047928;28;20043;-50
2024/01/08 13:36:16;;;;;;;14.13;8.73;;;;;;;;;;5047798;28;20025;-52
2024/01/08 13:38:42;;;;;;;15.02;9.82;;;;;;;;;;5047824;28;20100;-51
2024/01/08 13:41:09;;;;;;;14.98;10.13;;;;;;;;;;5046269;28;20526;-53
2024/01/08 13:43:35;;;;;;;14.23;8.30;;;;;;;;;;5047748;28;20073;-49
2024/01/08 13:46:01;;;;;;;13.50;8.38;;;;;;;;;;5048179;28;20088;-49
2024/01/08 13:48:27;;;;;;;13.50;8.30;;;;;;;;;;5047845;28;20479;-49
2024/01/08 13:50:55;;;;;;;13.65;8.73;;;;;;;;;;5047359;28;20521;-50
2024/01/08 13:53:21;;;;;;;13.48;8.20;;;;;;;;;;5047751;28;20036;-51
2024/01/08 13:55:47;;;;;;;13.65;8.90;;;;;;;;;;5028731;28;20089;-51
2024/01/08 13:58:13;;;;;;;13.45;8.30;;;;;;;;;;5042879;28;20108;-50
2024/01/08 14:00:41;;;;;;;13.57;8.63;;;;;;;;;;5027742;28;20022;-55
2024/01/08 14:03:07;;;;;;;14.10;9.30;;;;;;;;;;5027795;28;20393;-52
2024/01/08 14:05:33;;;;;;;13.80;9.27;;;;;;;;;;5027503;28;20029;-48
2024/01/08 14:07:59;;;;;;;13.65;8.50;;;;;;;;;;5027302;28;20531;-54
2024/01/08 14:10:26;;;;;;;14.02;9.15;;;;;;;;;;5027186;28;20526;-49
2024/01/08 14:12:52;;;;;;;13.52;8.52;;;;;;;;;;5027698;28;20032;-49
2024/01/08 14:15:18;;;;;;;13.68;8.85;;;;;;;;;;5027784;28;20030;-51
2024/01/08 14:17:44;;;;;;;14.20;9.18;;;;;;;;;;5027370;28;20502;-53
2024/01/08 14:20:10;;;;;;;14.20;8.90;;;;;;;;;;5027346;28;20377;-50
2024/01/08 14:22:37;;;;;;;13.98;9.40;;;;;;;;;;5033593;28;20029;-53
2024/01/08 14:25:03;;;;;;;13.60;8.65;;;;;;;;;;5042971;28;20087;-49
2024/01/08 14:27:29;;;;;;;15.57;9.13;;;;;;;;;;5046943;28;20085;-50
2024/01/08 14:29:55;;;;;;;13.90;9.20;;;;;;;;;;5046104;28;20437;-53
2024/01/08 14:32:21;;;;;;;13.80;9.00;;;;;;;;;;5046954;28;20021;-54